sensor_id;sensor_type;location;lat;lon;timestamp;P1;durP1;ratioP1;P2;durP2;ratioP2
60416;SDS011;46263;44.726;10.396;2023-12-20T00:02:11;2.65;;;2.22;;
60416;SDS011;46263;44.726;10.396;2023-12-20T00:04:36;3.80;;;2.83;;
60416;SDS011;46263;44.726;10.396;2023-12-20T00:07:01;2.72;;;2.30;;
60416;SDS011;46263;44.726;10.396;2023-12-20T00:09:27;5.07;;;2.42;;
60416;SDS011;46263;44.726;10.396;2023-12-20T00:11:52;2.88;;;2.05;;
60416;SDS011;46263;44.726;10.396;2023-12-20T00:14:17;2.60;;;2.40;;
60416;SDS011;46263;44.726;10.396;2023-12-20T00:16:43;7.90;;;2.40;;
60416;SDS011;46263;44.726;10.396;2023-12-20T00:19:08;2.40;;;2.20;;
60416;SDS011;46263;44.726;10.396;2023-12-20T00:21:34;3.60;;;2.72;;
60416;SDS011;46263;44.726;10.396;2023-12-20T00:23:59;3.50;;;2.50;;
60416;SDS011;46263;44.726;10.396;2023-12-20T00:26:25;4.47;;;2.50;;
60416;SDS011;46263;44.726;10.396;2023-12-20T00:28:50;3.03;;;2.05;;
60416;SDS011;46263;44.726;10.396;2023-12-20T00:31:16;4.75;;;2.53;;
60416;SDS011;46263;44.726;10.396;2023-12-20T00:33:41;3.88;;;2.55;;
60416;SDS011;46263;44.726;10.396;2023-12-20T00:36:08;3.78;;;2.58;;
60416;SDS011;46263;44.726;10.396;2023-12-20T00:38:34;3.55;;;2.47;;
60416;SDS011;46263;44.726;10.396;2023-12-20T00:41:00;2.85;;;1.88;;
60416;SDS011;46263;44.726;10.396;2023-12-20T00:43:44;3.55;;;1.95;;
60416;SDS011;46263;44.726;10.396;2023-12-20T00:46:09;2.22;;;2.03;;
60416;SDS011;46263;44.726;10.396;2023-12-20T00:48:35;2.35;;;2.05;;
60416;SDS011;46263;44.726;10.396;2023-12-20T00:51:00;3.92;;;2.72;;
60416;SDS011;46263;44.726;10.396;2023-12-20T00:53:26;4.53;;;2.67;;
60416;SDS011;46263;44.726;10.396;2023-12-20T00:55:51;4.00;;;2.50;;
60416;SDS011;46263;44.726;10.396;2023-12-20T00:58:16;2.55;;;2.00;;
60416;SDS011;46263;44.726;10.396;2023-12-20T01:00:42;5.85;;;2.65;;
60416;SDS011;46263;44.726;10.396;2023-12-20T01:03:09;6.18;;;2.47;;
60416;SDS011;46263;44.726;10.396;2023-12-20T01:05:34;3.47;;;2.30;;
60416;SDS011;46263;44.726;10.396;2023-12-20T01:07:59;4.40;;;2.75;;
60416;SDS011;46263;44.726;10.396;2023-12-20T01:10:25;3.05;;;2.30;;
60416;SDS011;46263;44.726;10.396;2023-12-20T01:12:53;3.08;;;2.13;;
60416;SDS011;46263;44.726;10.396;2023-12-20T01:15:18;4.32;;;2.50;;
60416;SDS011;46263;44.726;10.396;2023-12-20T01:17:44;3.45;;;2.20;;
60416;SDS011;46263;44.726;10.396;2023-12-20T01:20:09;3.30;;;2.47;;
60416;SDS011;46263;44.726;10.396;2023-12-20T01:22:35;4.57;;;2.17;;
60416;SDS011;46263;44.726;10.396;2023-12-20T01:25:01;3.83;;;2.38;;
60416;SDS011;46263;44.726;10.396;2023-12-20T01:27:27;2.92;;;2.58;;
60416;SDS011;46263;44.726;10.396;2023-12-20T01:29:52;3.40;;;2.22;;
60416;SDS011;46263;44.726;10.396;2023-12-20T01:32:18;3.83;;;2.38;;
60416;SDS011;46263;44.726;10.396;2023-12-20T01:34:43;3.22;;;2.10;;
60416;SDS011;46263;44.726;10.396;2023-12-20T01:37:09;3.30;;;2.30;;
60416;SDS011;46263;44.726;10.396;2023-12-20T01:39:34;4.50;;;2.50;;
60416;SDS011;46263;44.726;10.396;2023-12-20T01:41:59;3.47;;;2.33;;
60416;SDS011;46263;44.726;10.396;2023-12-20T01:44:25;2.78;;;2.33;;
60416;SDS011;46263;44.726;10.396;2023-12-20T01:46:51;3.55;;;2.35;;
60416;SDS011;46263;44.726;10.396;2023-12-20T01:49:17;3.03;;;2.35;;
60416;SDS011;46263;44.726;10.396;2023-12-20T01:51:42;3.67;;;2.20;;
60416;SDS011;46263;44.726;10.396;2023-12-20T01:54:09;3.60;;;2.30;;
60416;SDS011;46263;44.726;10.396;2023-12-20T01:56:34;2.63;;;2.13;;
60416;SDS011;46263;44.726;10.396;2023-12-20T01:59:00;4.85;;;2.17;;
60416;SDS011;46263;44.726;10.396;2023-12-20T02:01:26;3.67;;;2.22;;
60416;SDS011;46263;44.726;10.396;2023-12-20T02:03:53;2.35;;;1.85;;
60416;SDS011;46263;44.726;10.396;2023-12-20T02:06:20;1.98;;;1.77;;
60416;SDS011;46263;44.726;10.396;2023-12-20T02:08:48;2.55;;;2.00;;
60416;SDS011;46263;44.726;10.396;2023-12-20T02:11:15;2.33;;;1.70;;
60416;SDS011;46263;44.726;10.396;2023-12-20T02:13:40;2.08;;;1.73;;
60416;SDS011;46263;44.726;10.396;2023-12-20T02:16:06;2.40;;;2.13;;
60416;SDS011;46263;44.726;10.396;2023-12-20T02:18:32;2.47;;;1.90;;
60416;SDS011;46263;44.726;10.396;2023-12-20T02:20:58;2.63;;;2.05;;
60416;SDS011;46263;44.726;10.396;2023-12-20T02:23:23;2.28;;;2.03;;
60416;SDS011;46263;44.726;10.396;2023-12-20T02:25:49;1.98;;;1.77;;
60416;SDS011;46263;44.726;10.396;2023-12-20T02:28:14;1.98;;;1.55;;
60416;SDS011;46263;44.726;10.396;2023-12-20T02:30:40;1.70;;;1.55;;
60416;SDS011;46263;44.726;10.396;2023-12-20T02:33:07;1.50;;;1.35;;
60416;SDS011;46263;44.726;10.396;2023-12-20T02:35:36;2.85;;;2.42;;
60416;SDS011;46263;44.726;10.396;2023-12-20T02:38:02;2.00;;;1.70;;
60416;SDS011;46263;44.726;10.396;2023-12-20T02:40:27;1.55;;;1.45;;
60416;SDS011;46263;44.726;10.396;2023-12-20T02:42:52;1.90;;;1.63;;
60416;SDS011;46263;44.726;10.396;2023-12-20T02:45:18;1.65;;;1.55;;
60416;SDS011;46263;44.726;10.396;2023-12-20T02:47:43;2.40;;;1.70;;
60416;SDS011;46263;44.726;10.396;2023-12-20T02:50:08;2.05;;;1.73;;
60416;SDS011;46263;44.726;10.396;2023-12-20T02:52:34;2.22;;;1.65;;
60416;SDS011;46263;44.726;10.396;2023-12-20T02:54:59;2.28;;;1.30;;
60416;SDS011;46263;44.726;10.396;2023-12-20T02:57:25;2.42;;;1.42;;
60416;SDS011;46263;44.726;10.396;2023-12-20T02:59:50;2.22;;;1.60;;
60416;SDS011;46263;44.726;10.396;2023-12-20T03:02:16;2.33;;;2.13;;
60416;SDS011;46263;44.726;10.396;2023-12-20T03:04:41;2.33;;;1.55;;
60416;SDS011;46263;44.726;10.396;2023-12-20T03:07:06;2.72;;;1.92;;
60416;SDS011;46263;44.726;10.396;2023-12-20T03:09:32;2.03;;;1.60;;
60416;SDS011;46263;44.726;10.396;2023-12-20T03:11:57;2.05;;;1.70;;
60416;SDS011;46263;44.726;10.396;2023-12-20T03:14:22;2.20;;;2.00;;
60416;SDS011;46263;44.726;10.396;2023-12-20T03:16:51;2.25;;;1.85;;
60416;SDS011;46263;44.726;10.396;2023-12-20T03:19:17;4.00;;;1.98;;
60416;SDS011;46263;44.726;10.396;2023-12-20T03:21:44;3.40;;;1.40;;
60416;SDS011;46263;44.726;10.396;2023-12-20T03:24:10;3.53;;;2.35;;
60416;SDS011;46263;44.726;10.396;2023-12-20T03:26:35;3.30;;;2.15;;
60416;SDS011;46263;44.726;10.396;2023-12-20T03:29:00;3.15;;;2.10;;
60416;SDS011;46263;44.726;10.396;2023-12-20T03:31:26;4.15;;;2.08;;
60416;SDS011;46263;44.726;10.396;2023-12-20T03:33:51;2.03;;;1.73;;
60416;SDS011;46263;44.726;10.396;2023-12-20T03:36:18;3.60;;;2.22;;
60416;SDS011;46263;44.726;10.396;2023-12-20T03:38:44;2.22;;;1.90;;
60416;SDS011;46263;44.726;10.396;2023-12-20T03:41:11;4.15;;;2.05;;
60416;SDS011;46263;44.726;10.396;2023-12-20T03:43:36;3.58;;;2.20;;
60416;SDS011;46263;44.726;10.396;2023-12-20T03:46:02;2.10;;;1.70;;
60416;SDS011;46263;44.726;10.396;2023-12-20T03:48:29;6.13;;;2.30;;
60416;SDS011;46263;44.726;10.396;2023-12-20T03:50:54;2.30;;;2.10;;
60416;SDS011;46263;44.726;10.396;2023-12-20T03:53:20;2.72;;;2.00;;
60416;SDS011;46263;44.726;10.396;2023-12-20T03:55:45;2.80;;;2.03;;
60416;SDS011;46263;44.726;10.396;2023-12-20T03:58:11;2.58;;;2.08;;
60416;SDS011;46263;44.726;10.396;2023-12-20T04:00:36;3.85;;;2.20;;
60416;SDS011;46263;44.726;10.396;2023-12-20T04:03:02;2.00;;;1.80;;
60416;SDS011;46263;44.726;10.396;2023-12-20T04:05:27;2.78;;;1.63;;
60416;SDS011;46263;44.726;10.396;2023-12-20T04:07:52;3.53;;;1.42;;
60416;SDS011;46263;44.726;10.396;2023-12-20T04:10:18;2.10;;;1.90;;
60416;SDS011;46263;44.726;10.396;2023-12-20T04:12:43;3.60;;;1.70;;
60416;SDS011;46263;44.726;10.396;2023-12-20T04:15:09;1.60;;;1.50;;
60416;SDS011;46263;44.726;10.396;2023-12-20T04:17:35;2.97;;;1.92;;
60416;SDS011;46263;44.726;10.396;2023-12-20T04:20:01;3.83;;;2.05;;
60416;SDS011;46263;44.726;10.396;2023-12-20T04:22:27;2.88;;;1.90;;
60416;SDS011;46263;44.726;10.396;2023-12-20T04:24:52;2.50;;;1.70;;
60416;SDS011;46263;44.726;10.396;2023-12-20T04:27:18;3.20;;;2.15;;
60416;SDS011;46263;44.726;10.396;2023-12-20T04:29:43;3.42;;;1.98;;
60416;SDS011;46263;44.726;10.396;2023-12-20T04:32:08;2.35;;;1.70;;
60416;SDS011;46263;44.726;10.396;2023-12-20T04:34:34;2.72;;;2.10;;
60416;SDS011;46263;44.726;10.396;2023-12-20T04:36:59;2.97;;;2.10;;
60416;SDS011;46263;44.726;10.396;2023-12-20T04:39:26;5.40;;;1.95;;
60416;SDS011;46263;44.726;10.396;2023-12-20T04:41:52;2.45;;;1.70;;
60416;SDS011;46263;44.726;10.396;2023-12-20T04:44:17;2.40;;;2.20;;
60416;SDS011;46263;44.726;10.396;2023-12-20T04:46:43;4.03;;;3.15;;
60416;SDS011;46263;44.726;10.396;2023-12-20T04:49:08;3.58;;;2.63;;
60416;SDS011;46263;44.726;10.396;2023-12-20T04:51:34;4.45;;;2.70;;
60416;SDS011;46263;44.726;10.396;2023-12-20T04:54:00;3.28;;;2.63;;
60416;SDS011;46263;44.726;10.396;2023-12-20T04:56:25;3.50;;;2.10;;
60416;SDS011;46263;44.726;10.396;2023-12-20T04:58:51;2.75;;;2.28;;
60416;SDS011;46263;44.726;10.396;2023-12-20T05:01:16;3.17;;;2.63;;
60416;SDS011;46263;44.726;10.396;2023-12-20T05:03:42;5.68;;;2.78;;
60416;SDS011;46263;44.726;10.396;2023-12-20T05:06:07;7.47;;;2.85;;
60416;SDS011;46263;44.726;10.396;2023-12-20T05:08:33;3.78;;;2.97;;
60416;SDS011;46263;44.726;10.396;2023-12-20T05:10:58;6.00;;;3.38;;
60416;SDS011;46263;44.726;10.396;2023-12-20T05:13:23;7.60;;;3.80;;
60416;SDS011;46263;44.726;10.396;2023-12-20T05:15:49;7.82;;;3.30;;
60416;SDS011;46263;44.726;10.396;2023-12-20T05:18:14;6.22;;;3.55;;
60416;SDS011;46263;44.726;10.396;2023-12-20T05:20:40;6.50;;;3.28;;
60416;SDS011;46263;44.726;10.396;2023-12-20T05:23:05;5.65;;;3.28;;
60416;SDS011;46263;44.726;10.396;2023-12-20T05:25:31;4.90;;;3.22;;
60416;SDS011;46263;44.726;10.396;2023-12-20T05:27:57;5.28;;;3.80;;
60416;SDS011;46263;44.726;10.396;2023-12-20T05:30:22;6.57;;;3.75;;
60416;SDS011;46263;44.726;10.396;2023-12-20T05:32:48;5.68;;;3.33;;
60416;SDS011;46263;44.726;10.396;2023-12-20T05:35:14;6.88;;;3.83;;
60416;SDS011;46263;44.726;10.396;2023-12-20T05:37:40;7.18;;;4.38;;
60416;SDS011;46263;44.726;10.396;2023-12-20T05:40:06;6.50;;;4.70;;
60416;SDS011;46263;44.726;10.396;2023-12-20T05:42:35;5.97;;;3.65;;
60416;SDS011;46263;44.726;10.396;2023-12-20T05:45:01;4.30;;;3.25;;
60416;SDS011;46263;44.726;10.396;2023-12-20T05:47:26;4.03;;;2.90;;
60416;SDS011;46263;44.726;10.396;2023-12-20T05:49:51;3.40;;;2.90;;
60416;SDS011;46263;44.726;10.396;2023-12-20T05:52:18;4.43;;;2.97;;
60416;SDS011;46263;44.726;10.396;2023-12-20T05:54:43;4.10;;;2.50;;
60416;SDS011;46263;44.726;10.396;2023-12-20T05:57:09;5.78;;;3.20;;
60416;SDS011;46263;44.726;10.396;2023-12-20T05:59:34;5.95;;;2.45;;
60416;SDS011;46263;44.726;10.396;2023-12-20T06:01:59;4.50;;;2.80;;
60416;SDS011;46263;44.726;10.396;2023-12-20T06:04:25;5.20;;;3.13;;
60416;SDS011;46263;44.726;10.396;2023-12-20T06:06:50;8.10;;;3.67;;
60416;SDS011;46263;44.726;10.396;2023-12-20T06:09:15;8.57;;;3.95;;
60416;SDS011;46263;44.726;10.396;2023-12-20T06:11:41;6.85;;;3.05;;
60416;SDS011;46263;44.726;10.396;2023-12-20T06:14:08;5.63;;;3.80;;
60416;SDS011;46263;44.726;10.396;2023-12-20T06:16:34;5.13;;;3.63;;
60416;SDS011;46263;44.726;10.396;2023-12-20T06:18:59;6.35;;;3.95;;
60416;SDS011;46263;44.726;10.396;2023-12-20T06:21:25;6.70;;;3.38;;
60416;SDS011;46263;44.726;10.396;2023-12-20T06:23:50;4.70;;;3.30;;
60416;SDS011;46263;44.726;10.396;2023-12-20T06:26:15;11.20;;;3.97;;
60416;SDS011;46263;44.726;10.396;2023-12-20T06:28:41;7.20;;;3.60;;
60416;SDS011;46263;44.726;10.396;2023-12-20T06:31:06;5.22;;;3.80;;
60416;SDS011;46263;44.726;10.396;2023-12-20T06:33:32;6.30;;;4.10;;
60416;SDS011;46263;44.726;10.396;2023-12-20T06:35:57;4.90;;;3.95;;
60416;SDS011;46263;44.726;10.396;2023-12-20T06:38:22;7.30;;;4.07;;
60416;SDS011;46263;44.726;10.396;2023-12-20T06:40:48;8.27;;;3.97;;
60416;SDS011;46263;44.726;10.396;2023-12-20T06:43:13;6.30;;;4.10;;
60416;SDS011;46263;44.726;10.396;2023-12-20T06:45:39;8.00;;;4.32;;
60416;SDS011;46263;44.726;10.396;2023-12-20T06:48:04;7.97;;;5.13;;
60416;SDS011;46263;44.726;10.396;2023-12-20T06:50:30;8.38;;;4.68;;
60416;SDS011;46263;44.726;10.396;2023-12-20T06:52:56;10.00;;;4.47;;
60416;SDS011;46263;44.726;10.396;2023-12-20T06:55:22;5.20;;;3.60;;
60416;SDS011;46263;44.726;10.396;2023-12-20T06:57:48;8.98;;;4.15;;
60416;SDS011;46263;44.726;10.396;2023-12-20T07:00:14;5.90;;;3.90;;
60416;SDS011;46263;44.726;10.396;2023-12-20T07:02:39;5.90;;;3.80;;
60416;SDS011;46263;44.726;10.396;2023-12-20T07:05:05;12.63;;;4.10;;
60416;SDS011;46263;44.726;10.396;2023-12-20T07:07:31;7.55;;;4.28;;
60416;SDS011;46263;44.726;10.396;2023-12-20T07:09:56;5.25;;;4.22;;
60416;SDS011;46263;44.726;10.396;2023-12-20T07:12:22;8.43;;;4.63;;
60416;SDS011;46263;44.726;10.396;2023-12-20T07:14:48;11.25;;;4.90;;
60416;SDS011;46263;44.726;10.396;2023-12-20T07:17:13;7.03;;;4.50;;
60416;SDS011;46263;44.726;10.396;2023-12-20T07:19:40;11.77;;;4.75;;
60416;SDS011;46263;44.726;10.396;2023-12-20T07:22:06;12.27;;;4.72;;
60416;SDS011;46263;44.726;10.396;2023-12-20T07:24:32;9.25;;;4.80;;
60416;SDS011;46263;44.726;10.396;2023-12-20T07:27:01;8.52;;;5.00;;
60416;SDS011;46263;44.726;10.396;2023-12-20T07:29:27;10.23;;;4.95;;
60416;SDS011;46263;44.726;10.396;2023-12-20T07:31:53;8.25;;;5.00;;
60416;SDS011;46263;44.726;10.396;2023-12-20T07:34:19;8.95;;;4.97;;
60416;SDS011;46263;44.726;10.396;2023-12-20T07:36:45;6.60;;;4.95;;
60416;SDS011;46263;44.726;10.396;2023-12-20T07:39:11;9.55;;;5.15;;
60416;SDS011;46263;44.726;10.396;2023-12-20T07:41:36;9.07;;;5.65;;
60416;SDS011;46263;44.726;10.396;2023-12-20T07:44:02;9.27;;;5.68;;
60416;SDS011;46263;44.726;10.396;2023-12-20T07:46:29;11.68;;;6.05;;
60416;SDS011;46263;44.726;10.396;2023-12-20T07:48:54;12.43;;;6.13;;
60416;SDS011;46263;44.726;10.396;2023-12-20T07:51:19;11.15;;;6.20;;
60416;SDS011;46263;44.726;10.396;2023-12-20T07:53:46;14.00;;;6.40;;
60416;SDS011;46263;44.726;10.396;2023-12-20T07:56:15;15.10;;;7.40;;
60416;SDS011;46263;44.726;10.396;2023-12-20T07:58:41;18.33;;;7.00;;
60416;SDS011;46263;44.726;10.396;2023-12-20T08:01:07;12.10;;;7.07;;
60416;SDS011;46263;44.726;10.396;2023-12-20T08:03:32;17.42;;;7.65;;
60416;SDS011;46263;44.726;10.396;2023-12-20T08:05:58;14.27;;;7.43;;
60416;SDS011;46263;44.726;10.396;2023-12-20T08:08:24;16.77;;;7.18;;
60416;SDS011;46263;44.726;10.396;2023-12-20T08:10:50;12.50;;;7.90;;
60416;SDS011;46263;44.726;10.396;2023-12-20T08:13:15;14.77;;;7.97;;
60416;SDS011;46263;44.726;10.396;2023-12-20T08:15:41;15.75;;;7.75;;
60416;SDS011;46263;44.726;10.396;2023-12-20T08:18:06;17.70;;;8.00;;
60416;SDS011;46263;44.726;10.396;2023-12-20T08:20:34;15.40;;;8.88;;
60416;SDS011;46263;44.726;10.396;2023-12-20T08:23:00;16.88;;;8.95;;
60416;SDS011;46263;44.726;10.396;2023-12-20T08:25:25;20.75;;;8.93;;
60416;SDS011;46263;44.726;10.396;2023-12-20T08:27:52;20.65;;;8.55;;
60416;SDS011;46263;44.726;10.396;2023-12-20T08:30:18;15.73;;;9.02;;
60416;SDS011;46263;44.726;10.396;2023-12-20T08:32:46;15.77;;;8.93;;
60416;SDS011;46263;44.726;10.396;2023-12-20T08:35:14;16.33;;;8.23;;
60416;SDS011;46263;44.726;10.396;2023-12-20T08:37:40;19.20;;;8.80;;
60416;SDS011;46263;44.726;10.396;2023-12-20T08:40:05;18.08;;;8.20;;
60416;SDS011;46263;44.726;10.396;2023-12-20T08:42:31;12.98;;;7.60;;
60416;SDS011;46263;44.726;10.396;2023-12-20T08:44:57;12.65;;;6.40;;
60416;SDS011;46263;44.726;10.396;2023-12-20T08:47:23;14.48;;;6.13;;
60416;SDS011;46263;44.726;10.396;2023-12-20T08:49:49;12.98;;;5.70;;
60416;SDS011;46263;44.726;10.396;2023-12-20T08:52:14;12.23;;;5.93;;
60416;SDS011;46263;44.726;10.396;2023-12-20T08:54:40;8.43;;;5.75;;
60416;SDS011;46263;44.726;10.396;2023-12-20T08:57:05;11.60;;;6.72;;
60416;SDS011;46263;44.726;10.396;2023-12-20T08:59:32;13.75;;;6.03;;
60416;SDS011;46263;44.726;10.396;2023-12-20T09:01:58;11.57;;;5.30;;
60416;SDS011;46263;44.726;10.396;2023-12-20T09:04:23;9.10;;;5.55;;
60416;SDS011;46263;44.726;10.396;2023-12-20T09:06:48;12.15;;;5.85;;
60416;SDS011;46263;44.726;10.396;2023-12-20T09:09:14;10.93;;;5.25;;
60416;SDS011;46263;44.726;10.396;2023-12-20T09:11:39;9.13;;;5.57;;
60416;SDS011;46263;44.726;10.396;2023-12-20T09:14:05;9.95;;;5.68;;
60416;SDS011;46263;44.726;10.396;2023-12-20T09:16:31;10.18;;;5.20;;
60416;SDS011;46263;44.726;10.396;2023-12-20T09:18:56;8.27;;;5.60;;
60416;SDS011;46263;44.726;10.396;2023-12-20T09:21:23;14.10;;;6.25;;
60416;SDS011;46263;44.726;10.396;2023-12-20T09:23:48;16.08;;;6.63;;
60416;SDS011;46263;44.726;10.396;2023-12-20T09:26:14;11.32;;;6.18;;
60416;SDS011;46263;44.726;10.396;2023-12-20T09:28:40;12.73;;;6.30;;
60416;SDS011;46263;44.726;10.396;2023-12-20T09:31:05;13.35;;;6.18;;
60416;SDS011;46263;44.726;10.396;2023-12-20T09:33:31;14.40;;;6.50;;
60416;SDS011;46263;44.726;10.396;2023-12-20T09:35:57;12.10;;;6.50;;
60416;SDS011;46263;44.726;10.396;2023-12-20T09:38:23;11.18;;;6.03;;
60416;SDS011;46263;44.726;10.396;2023-12-20T09:40:48;9.80;;;6.45;;
60416;SDS011;46263;44.726;10.396;2023-12-20T09:43:14;13.93;;;7.15;;
60416;SDS011;46263;44.726;10.396;2023-12-20T09:45:41;14.63;;;6.47;;
60416;SDS011;46263;44.726;10.396;2023-12-20T09:48:10;15.90;;;7.93;;
60416;SDS011;46263;44.726;10.396;2023-12-20T09:50:37;14.00;;;6.63;;
60416;SDS011;46263;44.726;10.396;2023-12-20T09:53:02;11.10;;;6.32;;
60416;SDS011;46263;44.726;10.396;2023-12-20T09:55:30;13.18;;;5.97;;
60416;SDS011;46263;44.726;10.396;2023-12-20T09:57:57;11.07;;;6.68;;
60416;SDS011;46263;44.726;10.396;2023-12-20T10:00:22;12.88;;;6.47;;
60416;SDS011;46263;44.726;10.396;2023-12-20T10:05:17;12.75;;;6.68;;
60416;SDS011;46263;44.726;10.396;2023-12-20T10:07:48;13.05;;;6.63;;
60416;SDS011;46263;44.726;10.396;2023-12-20T10:10:14;9.63;;;5.70;;
60416;SDS011;46263;44.726;10.396;2023-12-20T10:12:39;11.18;;;5.82;;
60416;SDS011;46263;44.726;10.396;2023-12-20T10:15:05;9.68;;;5.47;;
60416;SDS011;46263;44.726;10.396;2023-12-20T10:17:31;12.23;;;5.75;;
60416;SDS011;46263;44.726;10.396;2023-12-20T10:19:57;7.55;;;4.40;;
60416;SDS011;46263;44.726;10.396;2023-12-20T10:22:23;11.88;;;4.88;;
60416;SDS011;46263;44.726;10.396;2023-12-20T10:24:48;6.07;;;4.10;;
60416;SDS011;46263;44.726;10.396;2023-12-20T10:27:14;6.53;;;3.85;;
60416;SDS011;46263;44.726;10.396;2023-12-20T10:29:39;9.63;;;4.60;;
60416;SDS011;46263;44.726;10.396;2023-12-20T10:32:24;7.05;;;3.83;;
60416;SDS011;46263;44.726;10.396;2023-12-20T10:34:51;7.20;;;4.40;;
60416;SDS011;46263;44.726;10.396;2023-12-20T10:37:17;13.52;;;4.00;;
60416;SDS011;46263;44.726;10.396;2023-12-20T10:39:43;10.27;;;4.50;;
60416;SDS011;46263;44.726;10.396;2023-12-20T10:42:12;5.63;;;3.78;;
60416;SDS011;46263;44.726;10.396;2023-12-20T10:44:38;8.40;;;4.20;;
60416;SDS011;46263;44.726;10.396;2023-12-20T10:47:04;11.18;;;4.72;;
60416;SDS011;46263;44.726;10.396;2023-12-20T10:49:30;8.82;;;4.15;;
60416;SDS011;46263;44.726;10.396;2023-12-20T10:51:58;9.13;;;4.47;;
60416;SDS011;46263;44.726;10.396;2023-12-20T10:54:27;7.05;;;4.78;;
60416;SDS011;46263;44.726;10.396;2023-12-20T10:56:52;8.93;;;4.15;;
60416;SDS011;46263;44.726;10.396;2023-12-20T10:59:19;6.63;;;4.38;;
60416;SDS011;46263;44.726;10.396;2023-12-20T11:01:47;6.88;;;4.18;;
60416;SDS011;46263;44.726;10.396;2023-12-20T11:04:15;9.02;;;4.18;;
60416;SDS011;46263;44.726;10.396;2023-12-20T11:06:47;8.20;;;4.60;;
60416;SDS011;46263;44.726;10.396;2023-12-20T11:12:07;12.15;;;4.40;;
60416;SDS011;46263;44.726;10.396;2023-12-20T11:14:42;10.85;;;5.32;;
60416;SDS011;46263;44.726;10.396;2023-12-20T11:17:12;9.98;;;5.53;;
60416;SDS011;46263;44.726;10.396;2023-12-20T11:22:30;12.75;;;5.82;;
60416;SDS011;46263;44.726;10.396;2023-12-20T11:25:04;10.65;;;6.47;;
60416;SDS011;46263;44.726;10.396;2023-12-20T11:27:34;9.85;;;6.72;;
60416;SDS011;46263;44.726;10.396;2023-12-20T11:30:00;10.25;;;6.38;;
60416;SDS011;46263;44.726;10.396;2023-12-20T11:32:31;14.52;;;7.70;;
60416;SDS011;46263;44.726;10.396;2023-12-20T11:34:59;16.15;;;8.55;;
60416;SDS011;46263;44.726;10.396;2023-12-20T11:37:30;17.50;;;9.25;;
60416;SDS011;46263;44.726;10.396;2023-12-20T11:40:08;19.70;;;8.68;;
60416;SDS011;46263;44.726;10.396;2023-12-20T11:42:41;15.45;;;7.95;;
60416;SDS011;46263;44.726;10.396;2023-12-20T11:45:08;14.57;;;8.35;;
60416;SDS011;46263;44.726;10.396;2023-12-20T11:47:35;19.85;;;9.10;;
60416;SDS011;46263;44.726;10.396;2023-12-20T11:50:01;15.45;;;8.32;;
60416;SDS011;46263;44.726;10.396;2023-12-20T11:52:29;15.98;;;9.30;;
60416;SDS011;46263;44.726;10.396;2023-12-20T11:54:55;18.30;;;8.10;;
60416;SDS011;46263;44.726;10.396;2023-12-20T11:57:20;14.50;;;8.93;;
60416;SDS011;46263;44.726;10.396;2023-12-20T11:59:46;16.20;;;8.80;;
60416;SDS011;46263;44.726;10.396;2023-12-20T12:02:12;16.92;;;8.18;;
60416;SDS011;46263;44.726;10.396;2023-12-20T12:04:37;12.45;;;8.15;;
60416;SDS011;46263;44.726;10.396;2023-12-20T12:07:03;20.27;;;8.50;;
60416;SDS011;46263;44.726;10.396;2023-12-20T12:09:28;16.30;;;9.10;;
60416;SDS011;46263;44.726;10.396;2023-12-20T12:11:54;12.00;;;8.00;;
60416;SDS011;46263;44.726;10.396;2023-12-20T12:14:20;18.48;;;9.65;;
60416;SDS011;46263;44.726;10.396;2023-12-20T12:16:45;17.40;;;8.25;;
60416;SDS011;46263;44.726;10.396;2023-12-20T12:19:24;16.85;;;8.52;;
60416;SDS011;46263;44.726;10.396;2023-12-20T12:21:51;15.35;;;8.02;;
60416;SDS011;46263;44.726;10.396;2023-12-20T12:24:46;16.13;;;8.15;;
60416;SDS011;46263;44.726;10.396;2023-12-20T12:27:15;18.77;;;8.45;;
60416;SDS011;46263;44.726;10.396;2023-12-20T12:29:41;12.63;;;8.15;;
60416;SDS011;46263;44.726;10.396;2023-12-20T12:32:24;16.02;;;7.32;;
60416;SDS011;46263;44.726;10.396;2023-12-20T12:34:50;14.70;;;8.45;;
60416;SDS011;46263;44.726;10.396;2023-12-20T12:37:15;18.40;;;9.13;;
60416;SDS011;46263;44.726;10.396;2023-12-20T12:39:41;17.40;;;8.40;;
60416;SDS011;46263;44.726;10.396;2023-12-20T12:42:06;16.00;;;8.32;;
60416;SDS011;46263;44.726;10.396;2023-12-20T12:44:31;14.98;;;8.00;;
60416;SDS011;46263;44.726;10.396;2023-12-20T12:46:57;16.45;;;8.05;;
60416;SDS011;46263;44.726;10.396;2023-12-20T12:49:22;17.45;;;9.50;;
60416;SDS011;46263;44.726;10.396;2023-12-20T12:51:48;13.65;;;8.25;;
60416;SDS011;46263;44.726;10.396;2023-12-20T12:54:13;17.85;;;8.77;;
60416;SDS011;46263;44.726;10.396;2023-12-20T12:56:41;16.35;;;9.38;;
60416;SDS011;46263;44.726;10.396;2023-12-20T12:59:07;14.80;;;9.20;;
60416;SDS011;46263;44.726;10.396;2023-12-20T13:01:32;16.00;;;8.77;;
60416;SDS011;46263;44.726;10.396;2023-12-20T13:03:58;19.15;;;9.32;;
60416;SDS011;46263;44.726;10.396;2023-12-20T13:06:23;20.90;;;9.85;;
60416;SDS011;46263;44.726;10.396;2023-12-20T13:08:49;14.00;;;9.30;;
60416;SDS011;46263;44.726;10.396;2023-12-20T13:11:15;18.73;;;9.50;;
60416;SDS011;46263;44.726;10.396;2023-12-20T13:13:40;17.70;;;10.27;;
60416;SDS011;46263;44.726;10.396;2023-12-20T13:16:05;15.82;;;9.63;;
60416;SDS011;46263;44.726;10.396;2023-12-20T13:18:31;20.90;;;10.65;;
60416;SDS011;46263;44.726;10.396;2023-12-20T13:20:56;17.48;;;9.98;;
60416;SDS011;46263;44.726;10.396;2023-12-20T13:23:22;16.80;;;9.43;;
60416;SDS011;46263;44.726;10.396;2023-12-20T13:25:47;16.63;;;9.10;;
60416;SDS011;46263;44.726;10.396;2023-12-20T13:28:13;18.20;;;9.70;;
60416;SDS011;46263;44.726;10.396;2023-12-20T13:30:39;15.50;;;10.07;;
60416;SDS011;46263;44.726;10.396;2023-12-20T13:33:05;20.40;;;10.00;;
60416;SDS011;46263;44.726;10.396;2023-12-20T13:35:31;19.92;;;10.07;;
60416;SDS011;46263;44.726;10.396;2023-12-20T13:37:57;17.83;;;10.32;;
60416;SDS011;46263;44.726;10.396;2023-12-20T13:40:23;14.43;;;9.48;;
60416;SDS011;46263;44.726;10.396;2023-12-20T13:42:48;18.95;;;10.23;;
60416;SDS011;46263;44.726;10.396;2023-12-20T13:45:14;20.45;;;10.20;;
60416;SDS011;46263;44.726;10.396;2023-12-20T13:47:39;15.55;;;9.80;;
60416;SDS011;46263;44.726;10.396;2023-12-20T13:50:05;15.40;;;8.75;;
60416;SDS011;46263;44.726;10.396;2023-12-20T13:52:31;15.13;;;9.48;;
60416;SDS011;46263;44.726;10.396;2023-12-20T13:54:56;13.85;;;8.50;;
60416;SDS011;46263;44.726;10.396;2023-12-20T13:57:21;16.20;;;9.23;;
60416;SDS011;46263;44.726;10.396;2023-12-20T13:59:47;21.83;;;10.57;;
60416;SDS011;46263;44.726;10.396;2023-12-20T14:02:13;14.52;;;9.32;;
60416;SDS011;46263;44.726;10.396;2023-12-20T14:04:38;14.57;;;9.00;;
60416;SDS011;46263;44.726;10.396;2023-12-20T14:07:04;15.25;;;8.77;;
60416;SDS011;46263;44.726;10.396;2023-12-20T14:09:32;17.17;;;10.23;;
60416;SDS011;46263;44.726;10.396;2023-12-20T14:11:58;14.13;;;9.43;;
60416;SDS011;46263;44.726;10.396;2023-12-20T14:14:24;17.42;;;9.63;;
60416;SDS011;46263;44.726;10.396;2023-12-20T14:16:49;23.67;;;10.52;;
60416;SDS011;46263;44.726;10.396;2023-12-20T14:19:16;17.92;;;10.13;;
60416;SDS011;46263;44.726;10.396;2023-12-20T14:21:41;17.90;;;9.73;;
60416;SDS011;46263;44.726;10.396;2023-12-20T14:24:07;15.48;;;9.35;;
60416;SDS011;46263;44.726;10.396;2023-12-20T14:26:32;18.33;;;9.60;;
60416;SDS011;46263;44.726;10.396;2023-12-20T14:28:57;18.13;;;9.52;;
60416;SDS011;46263;44.726;10.396;2023-12-20T14:31:23;18.20;;;9.93;;